sensor_id;sensor_type;location;lat;lon;timestamp;P1;durP1;ratioP1;P2;durP2;ratioP2
4432;SDS011;2229;48.708;9.706;2022-08-19T00:00:35;12.63;;;7.80;;
4432;SDS011;2229;48.708;9.706;2022-08-19T00:03:04;12.10;;;7.40;;
4432;SDS011;2229;48.708;9.706;2022-08-19T00:05:33;14.53;;;8.77;;
4432;SDS011;2229;48.708;9.706;2022-08-19T00:08:00;11.57;;;7.90;;
4432;SDS011;2229;48.708;9.706;2022-08-19T00:10:28;8.10;;;5.50;;
4432;SDS011;2229;48.708;9.706;2022-08-19T00:12:55;15.93;;;8.40;;
4432;SDS011;2229;48.708;9.706;2022-08-19T00:15:22;12.40;;;6.80;;
4432;SDS011;2229;48.708;9.706;2022-08-19T00:17:49;12.53;;;8.20;;
4432;SDS011;2229;48.708;9.706;2022-08-19T00:20:19;12.20;;;8.63;;
4432;SDS011;2229;48.708;9.706;2022-08-19T00:22:47;12.40;;;7.67;;
4432;SDS011;2229;48.708;9.706;2022-08-19T00:25:15;14.80;;;9.27;;
4432;SDS011;2229;48.708;9.706;2022-08-19T00:27:43;8.00;;;5.13;;
4432;SDS011;2229;48.708;9.706;2022-08-19T00:30:11;13.60;;;7.90;;
4432;SDS011;2229;48.708;9.706;2022-08-19T00:32:38;13.80;;;8.23;;
4432;SDS011;2229;48.708;9.706;2022-08-19T00:35:06;10.07;;;7.47;;
4432;SDS011;2229;48.708;9.706;2022-08-19T00:37:36;15.60;;;10.53;;
4432;SDS011;2229;48.708;9.706;2022-08-19T00:40:09;13.43;;;8.60;;
4432;SDS011;2229;48.708;9.706;2022-08-19T00:42:37;7.47;;;6.00;;
4432;SDS011;2229;48.708;9.706;2022-08-19T00:45:09;10.80;;;6.77;;
4432;SDS011;2229;48.708;9.706;2022-08-19T00:47:39;9.97;;;6.47;;
4432;SDS011;2229;48.708;9.706;2022-08-19T00:50:07;14.23;;;8.80;;
4432;SDS011;2229;48.708;9.706;2022-08-19T00:52:38;12.43;;;7.70;;
4432;SDS011;2229;48.708;9.706;2022-08-19T00:55:11;12.37;;;7.93;;
4432;SDS011;2229;48.708;9.706;2022-08-19T00:57:42;13.37;;;8.30;;
4432;SDS011;2229;48.708;9.706;2022-08-19T01:00:15;12.00;;;7.33;;
4432;SDS011;2229;48.708;9.706;2022-08-19T01:02:45;11.70;;;7.47;;
4432;SDS011;2229;48.708;9.706;2022-08-19T01:05:14;14.27;;;8.40;;
4432;SDS011;2229;48.708;9.706;2022-08-19T01:07:47;11.67;;;7.77;;
4432;SDS011;2229;48.708;9.706;2022-08-19T01:10:16;17.00;;;10.27;;
4432;SDS011;2229;48.708;9.706;2022-08-19T01:12:46;12.43;;;8.10;;
4432;SDS011;2229;48.708;9.706;2022-08-19T01:15:16;16.53;;;9.03;;
4432;SDS011;2229;48.708;9.706;2022-08-19T01:17:46;17.57;;;11.10;;
4432;SDS011;2229;48.708;9.706;2022-08-19T01:20:15;11.80;;;7.53;;
4432;SDS011;2229;48.708;9.706;2022-08-19T01:22:47;17.27;;;10.33;;
4432;SDS011;2229;48.708;9.706;2022-08-19T01:25:18;21.27;;;11.57;;
4432;SDS011;2229;48.708;9.706;2022-08-19T01:27:48;20.30;;;10.17;;
4432;SDS011;2229;48.708;9.706;2022-08-19T01:30:17;13.83;;;9.50;;
4432;SDS011;2229;48.708;9.706;2022-08-19T01:32:47;17.50;;;10.80;;
4432;SDS011;2229;48.708;9.706;2022-08-19T01:35:15;18.37;;;11.43;;
4432;SDS011;2229;48.708;9.706;2022-08-19T01:37:44;12.87;;;8.37;;
4432;SDS011;2229;48.708;9.706;2022-08-19T01:40:14;13.23;;;7.67;;
4432;SDS011;2229;48.708;9.706;2022-08-19T01:42:41;22.53;;;9.90;;
4432;SDS011;2229;48.708;9.706;2022-08-19T01:45:09;24.60;;;12.63;;
4432;SDS011;2229;48.708;9.706;2022-08-19T01:47:37;15.63;;;9.60;;
4432;SDS011;2229;48.708;9.706;2022-08-19T01:50:05;13.00;;;9.10;;
4432;SDS011;2229;48.708;9.706;2022-08-19T01:52:34;15.07;;;8.77;;
4432;SDS011;2229;48.708;9.706;2022-08-19T01:55:03;15.73;;;10.20;;
4432;SDS011;2229;48.708;9.706;2022-08-19T01:57:31;16.77;;;8.30;;
4432;SDS011;2229;48.708;9.706;2022-08-19T01:59:59;15.53;;;9.50;;
4432;SDS011;2229;48.708;9.706;2022-08-19T02:02:37;18.27;;;11.20;;
4432;SDS011;2229;48.708;9.706;2022-08-19T02:05:05;18.40;;;12.40;;
4432;SDS011;2229;48.708;9.706;2022-08-19T02:07:33;14.53;;;8.63;;
4432;SDS011;2229;48.708;9.706;2022-08-19T02:10:03;17.50;;;11.27;;
4432;SDS011;2229;48.708;9.706;2022-08-19T02:12:30;30.53;;;12.20;;
4432;SDS011;2229;48.708;9.706;2022-08-19T02:14:58;14.10;;;9.23;;
4432;SDS011;2229;48.708;9.706;2022-08-19T02:17:26;16.50;;;9.87;;
4432;SDS011;2229;48.708;9.706;2022-08-19T02:19:54;16.43;;;9.03;;
4432;SDS011;2229;48.708;9.706;2022-08-19T02:22:21;15.00;;;9.00;;
4432;SDS011;2229;48.708;9.706;2022-08-19T02:24:50;13.20;;;8.43;;
4432;SDS011;2229;48.708;9.706;2022-08-19T02:27:19;14.67;;;8.40;;
4432;SDS011;2229;48.708;9.706;2022-08-19T02:29:47;13.40;;;9.07;;
4432;SDS011;2229;48.708;9.706;2022-08-19T02:32:15;13.80;;;7.07;;
4432;SDS011;2229;48.708;9.706;2022-08-19T02:34:44;19.23;;;9.17;;
4432;SDS011;2229;48.708;9.706;2022-08-19T02:37:11;21.77;;;10.63;;
4432;SDS011;2229;48.708;9.706;2022-08-19T02:39:52;12.33;;;7.60;;
4432;SDS011;2229;48.708;9.706;2022-08-19T02:42:21;14.30;;;8.30;;
4432;SDS011;2229;48.708;9.706;2022-08-19T02:44:48;15.97;;;8.60;;
4432;SDS011;2229;48.708;9.706;2022-08-19T02:47:15;19.33;;;9.97;;
4432;SDS011;2229;48.708;9.706;2022-08-19T02:49:44;17.63;;;8.90;;
4432;SDS011;2229;48.708;9.706;2022-08-19T02:52:11;12.50;;;8.20;;
4432;SDS011;2229;48.708;9.706;2022-08-19T02:54:39;13.70;;;7.73;;
4432;SDS011;2229;48.708;9.706;2022-08-19T02:57:06;17.40;;;9.60;;
4432;SDS011;2229;48.708;9.706;2022-08-19T02:59:35;19.87;;;10.37;;
4432;SDS011;2229;48.708;9.706;2022-08-19T03:02:02;17.73;;;10.40;;
4432;SDS011;2229;48.708;9.706;2022-08-19T03:04:29;13.43;;;9.00;;
4432;SDS011;2229;48.708;9.706;2022-08-19T03:06:57;11.73;;;7.13;;
4432;SDS011;2229;48.708;9.706;2022-08-19T03:09:24;13.10;;;8.60;;
4432;SDS011;2229;48.708;9.706;2022-08-19T03:11:51;14.73;;;9.60;;
4432;SDS011;2229;48.708;9.706;2022-08-19T03:14:18;14.80;;;8.73;;
4432;SDS011;2229;48.708;9.706;2022-08-19T03:16:48;18.57;;;10.37;;
4432;SDS011;2229;48.708;9.706;2022-08-19T03:19:18;14.03;;;8.10;;
4432;SDS011;2229;48.708;9.706;2022-08-19T03:21:46;11.43;;;7.83;;
4432;SDS011;2229;48.708;9.706;2022-08-19T03:24:14;15.63;;;8.47;;
4432;SDS011;2229;48.708;9.706;2022-08-19T03:26:43;15.10;;;8.67;;
4432;SDS011;2229;48.708;9.706;2022-08-19T03:29:12;15.17;;;8.60;;
4432;SDS011;2229;48.708;9.706;2022-08-19T03:31:39;11.80;;;7.73;;
4432;SDS011;2229;48.708;9.706;2022-08-19T03:34:09;13.70;;;8.47;;
4432;SDS011;2229;48.708;9.706;2022-08-19T03:36:38;17.10;;;7.63;;
4432;SDS011;2229;48.708;9.706;2022-08-19T03:39:05;14.70;;;8.67;;
4432;SDS011;2229;48.708;9.706;2022-08-19T03:41:36;16.60;;;9.27;;
4432;SDS011;2229;48.708;9.706;2022-08-19T03:44:10;12.13;;;7.43;;
4432;SDS011;2229;48.708;9.706;2022-08-19T03:46:37;15.37;;;8.83;;
4432;SDS011;2229;48.708;9.706;2022-08-19T03:49:05;13.90;;;9.23;;
4432;SDS011;2229;48.708;9.706;2022-08-19T03:51:34;15.33;;;8.60;;
4432;SDS011;2229;48.708;9.706;2022-08-19T03:54:04;22.83;;;10.27;;
4432;SDS011;2229;48.708;9.706;2022-08-19T03:56:33;17.63;;;9.07;;
4432;SDS011;2229;48.708;9.706;2022-08-19T03:59:01;17.40;;;11.20;;
4432;SDS011;2229;48.708;9.706;2022-08-19T04:01:30;21.53;;;10.53;;
4432;SDS011;2229;48.708;9.706;2022-08-19T04:03:59;22.50;;;13.10;;
4432;SDS011;2229;48.708;9.706;2022-08-19T04:06:27;18.27;;;10.53;;
4432;SDS011;2229;48.708;9.706;2022-08-19T04:08:58;20.83;;;11.20;;
4432;SDS011;2229;48.708;9.706;2022-08-19T04:11:28;15.80;;;9.23;;
4432;SDS011;2229;48.708;9.706;2022-08-19T04:13:56;12.40;;;9.40;;
4432;SDS011;2229;48.708;9.706;2022-08-19T04:19:00;20.50;;;11.30;;
4432;SDS011;2229;48.708;9.706;2022-08-19T04:21:29;16.87;;;10.53;;
4432;SDS011;2229;48.708;9.706;2022-08-19T04:23:58;13.40;;;8.10;;
4432;SDS011;2229;48.708;9.706;2022-08-19T04:26:27;23.07;;;11.57;;
4432;SDS011;2229;48.708;9.706;2022-08-19T04:28:57;16.57;;;9.90;;
4432;SDS011;2229;48.708;9.706;2022-08-19T04:31:26;16.20;;;9.73;;
4432;SDS011;2229;48.708;9.706;2022-08-19T04:33:55;16.43;;;7.53;;
4432;SDS011;2229;48.708;9.706;2022-08-19T04:36:24;19.20;;;10.60;;
4432;SDS011;2229;48.708;9.706;2022-08-19T04:38:53;14.47;;;7.70;;
4432;SDS011;2229;48.708;9.706;2022-08-19T04:41:23;13.83;;;8.50;;
4432;SDS011;2229;48.708;9.706;2022-08-19T04:44:08;18.63;;;10.23;;
4432;SDS011;2229;48.708;9.706;2022-08-19T04:46:36;14.50;;;8.70;;
4432;SDS011;2229;48.708;9.706;2022-08-19T04:49:04;19.07;;;11.83;;
4432;SDS011;2229;48.708;9.706;2022-08-19T04:51:34;19.20;;;10.87;;
4432;SDS011;2229;48.708;9.706;2022-08-19T04:54:02;20.20;;;11.27;;
4432;SDS011;2229;48.708;9.706;2022-08-19T04:56:31;25.43;;;11.97;;
4432;SDS011;2229;48.708;9.706;2022-08-19T04:58:59;21.33;;;9.37;;
4432;SDS011;2229;48.708;9.706;2022-08-19T05:01:29;16.73;;;9.30;;
4432;SDS011;2229;48.708;9.706;2022-08-19T05:03:58;19.53;;;11.10;;
4432;SDS011;2229;48.708;9.706;2022-08-19T05:06:26;16.90;;;9.20;;
4432;SDS011;2229;48.708;9.706;2022-08-19T05:08:54;19.03;;;10.73;;
4432;SDS011;2229;48.708;9.706;2022-08-19T05:11:22;19.87;;;8.97;;
4432;SDS011;2229;48.708;9.706;2022-08-19T05:14:15;12.47;;;8.13;;
4432;SDS011;2229;48.708;9.706;2022-08-19T05:16:42;14.63;;;9.90;;
4432;SDS011;2229;48.708;9.706;2022-08-19T05:19:09;20.97;;;10.03;;
4432;SDS011;2229;48.708;9.706;2022-08-19T05:21:54;18.90;;;9.70;;
4432;SDS011;2229;48.708;9.706;2022-08-19T05:24:38;16.10;;;8.87;;
4432;SDS011;2229;48.708;9.706;2022-08-19T05:27:05;17.73;;;10.00;;
4432;SDS011;2229;48.708;9.706;2022-08-19T05:29:34;14.47;;;8.40;;
4432;SDS011;2229;48.708;9.706;2022-08-19T05:32:02;28.93;;;10.70;;
4432;SDS011;2229;48.708;9.706;2022-08-19T05:34:34;14.00;;;8.50;;
4432;SDS011;2229;48.708;9.706;2022-08-19T05:37:03;22.60;;;11.30;;
4432;SDS011;2229;48.708;9.706;2022-08-19T05:42:10;21.07;;;10.90;;
4432;SDS011;2229;48.708;9.706;2022-08-19T05:44:40;21.47;;;9.50;;
4432;SDS011;2229;48.708;9.706;2022-08-19T05:47:10;17.00;;;8.40;;
4432;SDS011;2229;48.708;9.706;2022-08-19T05:49:40;13.70;;;7.80;;
4432;SDS011;2229;48.708;9.706;2022-08-19T05:52:09;11.63;;;7.77;;
4432;SDS011;2229;48.708;9.706;2022-08-19T05:54:38;21.00;;;9.37;;
4432;SDS011;2229;48.708;9.706;2022-08-19T05:57:08;18.63;;;8.87;;
4432;SDS011;2229;48.708;9.706;2022-08-19T05:59:36;19.23;;;8.37;;
4432;SDS011;2229;48.708;9.706;2022-08-19T06:02:05;21.10;;;9.23;;
4432;SDS011;2229;48.708;9.706;2022-08-19T06:04:33;15.60;;;9.33;;
4432;SDS011;2229;48.708;9.706;2022-08-19T06:07:00;19.60;;;10.00;;
4432;SDS011;2229;48.708;9.706;2022-08-19T06:09:29;17.73;;;8.90;;
4432;SDS011;2229;48.708;9.706;2022-08-19T06:11:57;20.63;;;10.17;;
4432;SDS011;2229;48.708;9.706;2022-08-19T06:14:29;15.67;;;10.47;;
4432;SDS011;2229;48.708;9.706;2022-08-19T06:17:00;12.20;;;8.60;;
4432;SDS011;2229;48.708;9.706;2022-08-19T06:19:29;17.50;;;9.97;;
4432;SDS011;2229;48.708;9.706;2022-08-19T06:21:58;17.63;;;9.37;;
4432;SDS011;2229;48.708;9.706;2022-08-19T06:24:26;18.07;;;8.97;;
4432;SDS011;2229;48.708;9.706;2022-08-19T06:26:55;19.70;;;12.00;;
4432;SDS011;2229;48.708;9.706;2022-08-19T06:29:25;23.10;;;12.57;;
4432;SDS011;2229;48.708;9.706;2022-08-19T06:31:58;19.90;;;10.20;;
4432;SDS011;2229;48.708;9.706;2022-08-19T06:34:26;22.40;;;9.70;;
4432;SDS011;2229;48.708;9.706;2022-08-19T06:36:57;21.77;;;12.17;;
4432;SDS011;2229;48.708;9.706;2022-08-19T06:39:27;18.17;;;10.73;;
4432;SDS011;2229;48.708;9.706;2022-08-19T06:41:56;17.37;;;9.57;;
4432;SDS011;2229;48.708;9.706;2022-08-19T06:44:29;19.40;;;10.97;;
4432;SDS011;2229;48.708;9.706;2022-08-19T06:47:00;21.30;;;9.70;;
4432;SDS011;2229;48.708;9.706;2022-08-19T06:49:30;15.87;;;9.03;;
4432;SDS011;2229;48.708;9.706;2022-08-19T06:51:57;18.27;;;9.43;;
4432;SDS011;2229;48.708;9.706;2022-08-19T06:54:27;20.63;;;10.20;;
4432;SDS011;2229;48.708;9.706;2022-08-19T06:56:55;17.70;;;11.53;;
4432;SDS011;2229;48.708;9.706;2022-08-19T06:59:24;25.70;;;13.23;;
4432;SDS011;2229;48.708;9.706;2022-08-19T07:01:53;17.20;;;9.57;;
4432;SDS011;2229;48.708;9.706;2022-08-19T07:04:23;26.90;;;10.80;;
4432;SDS011;2229;48.708;9.706;2022-08-19T07:06:57;17.37;;;7.67;;
4432;SDS011;2229;48.708;9.706;2022-08-19T07:09:26;23.67;;;10.23;;
4432;SDS011;2229;48.708;9.706;2022-08-19T07:11:54;14.80;;;10.60;;
4432;SDS011;2229;48.708;9.706;2022-08-19T07:14:23;18.93;;;10.83;;
4432;SDS011;2229;48.708;9.706;2022-08-19T07:17:10;29.13;;;11.60;;
4432;SDS011;2229;48.708;9.706;2022-08-19T07:19:38;15.23;;;8.83;;
4432;SDS011;2229;48.708;9.706;2022-08-19T07:22:08;18.73;;;10.40;;
4432;SDS011;2229;48.708;9.706;2022-08-19T07:24:36;16.93;;;9.17;;
4432;SDS011;2229;48.708;9.706;2022-08-19T07:27:04;19.83;;;10.47;;
4432;SDS011;2229;48.708;9.706;2022-08-19T07:29:33;18.70;;;11.40;;
4432;SDS011;2229;48.708;9.706;2022-08-19T07:32:02;18.47;;;10.50;;
4432;SDS011;2229;48.708;9.706;2022-08-19T07:34:31;23.47;;;11.17;;
4432;SDS011;2229;48.708;9.706;2022-08-19T07:37:02;19.17;;;10.97;;
4432;SDS011;2229;48.708;9.706;2022-08-19T07:39:33;21.30;;;10.67;;
4432;SDS011;2229;48.708;9.706;2022-08-19T07:42:05;21.20;;;10.97;;
4432;SDS011;2229;48.708;9.706;2022-08-19T07:44:35;22.77;;;11.27;;
4432;SDS011;2229;48.708;9.706;2022-08-19T07:47:03;18.60;;;10.80;;
4432;SDS011;2229;48.708;9.706;2022-08-19T07:49:32;23.87;;;10.50;;
4432;SDS011;2229;48.708;9.706;2022-08-19T07:52:02;20.40;;;11.10;;
4432;SDS011;2229;48.708;9.706;2022-08-19T07:54:34;19.67;;;10.50;;
4432;SDS011;2229;48.708;9.706;2022-08-19T07:57:03;22.67;;;12.30;;
4432;SDS011;2229;48.708;9.706;2022-08-19T07:59:31;19.80;;;9.67;;
4432;SDS011;2229;48.708;9.706;2022-08-19T08:01:59;19.77;;;10.07;;
4432;SDS011;2229;48.708;9.706;2022-08-19T08:04:27;26.57;;;14.40;;
4432;SDS011;2229;48.708;9.706;2022-08-19T08:07:13;20.67;;;11.90;;
4432;SDS011;2229;48.708;9.706;2022-08-19T08:09:59;21.10;;;12.47;;
4432;SDS011;2229;48.708;9.706;2022-08-19T08:12:28;26.37;;;13.40;;
4432;SDS011;2229;48.708;9.706;2022-08-19T08:15:27;26.87;;;13.53;;
4432;SDS011;2229;48.708;9.706;2022-08-19T08:17:54;18.37;;;10.63;;
4432;SDS011;2229;48.708;9.706;2022-08-19T08:20:34;16.50;;;10.60;;
4432;SDS011;2229;48.708;9.706;2022-08-19T08:23:02;22.60;;;10.43;;
4432;SDS011;2229;48.708;9.706;2022-08-19T08:25:48;26.43;;;13.70;;
4432;SDS011;2229;48.708;9.706;2022-08-19T08:28:16;19.90;;;11.60;;
4432;SDS011;2229;48.708;9.706;2022-08-19T08:30:43;26.23;;;14.90;;
4432;SDS011;2229;48.708;9.706;2022-08-19T08:33:12;22.53;;;11.10;;
4432;SDS011;2229;48.708;9.706;2022-08-19T08:35:41;19.67;;;12.40;;
4432;SDS011;2229;48.708;9.706;2022-08-19T08:38:08;25.67;;;14.63;;
4432;SDS011;2229;48.708;9.706;2022-08-19T08:40:38;19.33;;;12.80;;
4432;SDS011;2229;48.708;9.706;2022-08-19T08:43:14;24.37;;;12.57;;
4432;SDS011;2229;48.708;9.706;2022-08-19T08:45:50;22.80;;;13.27;;
4432;SDS011;2229;48.708;9.706;2022-08-19T08:48:22;18.43;;;11.30;;
4432;SDS011;2229;48.708;9.706;2022-08-19T08:50:53;27.40;;;12.03;;
4432;SDS011;2229;48.708;9.706;2022-08-19T08:53:22;19.03;;;9.80;;
4432;SDS011;2229;48.708;9.706;2022-08-19T08:55:54;16.63;;;9.80;;
4432;SDS011;2229;48.708;9.706;2022-08-19T08:58:24;21.80;;;12.23;;
4432;SDS011;2229;48.708;9.706;2022-08-19T09:00:56;30.00;;;15.83;;
4432;SDS011;2229;48.708;9.706;2022-08-19T09:03:24;17.20;;;11.27;;
4432;SDS011;2229;48.708;9.706;2022-08-19T09:05:56;23.43;;;13.50;;
4432;SDS011;2229;48.708;9.706;2022-08-19T09:08:33;24.87;;;12.50;;
4432;SDS011;2229;48.708;9.706;2022-08-19T09:11:10;25.03;;;13.37;;
4432;SDS011;2229;48.708;9.706;2022-08-19T09:13:44;27.37;;;12.57;;
4432;SDS011;2229;48.708;9.706;2022-08-19T09:16:30;17.50;;;11.87;;
4432;SDS011;2229;48.708;9.706;2022-08-19T09:19:00;19.27;;;11.27;;
4432;SDS011;2229;48.708;9.706;2022-08-19T09:21:29;20.03;;;12.17;;
4432;SDS011;2229;48.708;9.706;2022-08-19T09:23:56;20.23;;;10.10;;
4432;SDS011;2229;48.708;9.706;2022-08-19T09:26:24;20.53;;;12.10;;
4432;SDS011;2229;48.708;9.706;2022-08-19T09:28:53;21.20;;;12.57;;
4432;SDS011;2229;48.708;9.706;2022-08-19T09:31:22;14.80;;;10.17;;
4432;SDS011;2229;48.708;9.706;2022-08-19T09:33:51;22.60;;;11.93;;
4432;SDS011;2229;48.708;9.706;2022-08-19T09:36:22;23.33;;;13.27;;
4432;SDS011;2229;48.708;9.706;2022-08-19T09:38:54;20.60;;;11.83;;
4432;SDS011;2229;48.708;9.706;2022-08-19T09:41:23;22.13;;;12.90;;
4432;SDS011;2229;48.708;9.706;2022-08-19T09:43:53;25.57;;;12.60;;
4432;SDS011;2229;48.708;9.706;2022-08-19T09:46:22;20.77;;;12.60;;
4432;SDS011;2229;48.708;9.706;2022-08-19T09:48:51;18.97;;;12.00;;
4432;SDS011;2229;48.708;9.706;2022-08-19T09:51:20;22.10;;;12.27;;
4432;SDS011;2229;48.708;9.706;2022-08-19T09:53:50;19.40;;;11.90;;
4432;SDS011;2229;48.708;9.706;2022-08-19T09:56:20;21.80;;;11.90;;
4432;SDS011;2229;48.708;9.706;2022-08-19T09:58:48;27.73;;;12.50;;
4432;SDS011;2229;48.708;9.706;2022-08-19T10:01:17;20.60;;;11.60;;
4432;SDS011;2229;48.708;9.706;2022-08-19T10:03:47;21.03;;;11.20;;
4432;SDS011;2229;48.708;9.706;2022-08-19T10:06:16;25.60;;;13.60;;
4432;SDS011;2229;48.708;9.706;2022-08-19T10:08:44;21.93;;;11.87;;
4432;SDS011;2229;48.708;9.706;2022-08-19T10:11:12;21.70;;;13.70;;
4432;SDS011;2229;48.708;9.706;2022-08-19T10:13:42;23.33;;;14.60;;
4432;SDS011;2229;48.708;9.706;2022-08-19T10:16:12;28.70;;;13.40;;
4432;SDS011;2229;48.708;9.706;2022-08-19T10:18:42;22.03;;;11.47;;
4432;SDS011;2229;48.708;9.706;2022-08-19T10:21:10;22.70;;;13.07;;
4432;SDS011;2229;48.708;9.706;2022-08-19T10:23:40;19.27;;;10.37;;
4432;SDS011;2229;48.708;9.706;2022-08-19T10:26:11;19.80;;;12.53;;
4432;SDS011;2229;48.708;9.706;2022-08-19T10:28:39;24.60;;;13.60;;
4432;SDS011;2229;48.708;9.706;2022-08-19T10:31:08;19.60;;;11.20;;
4432;SDS011;2229;48.708;9.706;2022-08-19T10:33:37;18.13;;;11.40;;
4432;SDS011;2229;48.708;9.706;2022-08-19T10:36:08;28.07;;;14.20;;
4432;SDS011;2229;48.708;9.706;2022-08-19T10:38:38;20.90;;;11.30;;
4432;SDS011;2229;48.708;9.706;2022-08-19T10:41:09;22.67;;;12.20;;
4432;SDS011;2229;48.708;9.706;2022-08-19T10:43:42;29.60;;;12.37;;
4432;SDS011;2229;48.708;9.706;2022-08-19T10:46:11;19.17;;;11.00;;
4432;SDS011;2229;48.708;9.706;2022-08-19T10:48:39;20.80;;;13.03;;
4432;SDS011;2229;48.708;9.706;2022-08-19T10:51:08;21.67;;;12.70;;
4432;SDS011;2229;48.708;9.706;2022-08-19T10:54:02;21.80;;;13.17;;
4432;SDS011;2229;48.708;9.706;2022-08-19T10:56:33;24.10;;;14.33;;
4432;SDS011;2229;48.708;9.706;2022-08-19T10:59:18;23.17;;;13.90;;
4432;SDS011;2229;48.708;9.706;2022-08-19T11:01:47;20.83;;;12.83;;
4432;SDS011;2229;48.708;9.706;2022-08-19T11:04:16;23.60;;;13.10;;
4432;SDS011;2229;48.708;9.706;2022-08-19T11:06:46;17.23;;;11.33;;
4432;SDS011;2229;48.708;9.706;2022-08-19T11:09:14;24.53;;;12.50;;
4432;SDS011;2229;48.708;9.706;2022-08-19T11:11:43;31.77;;;14.20;;
4432;SDS011;2229;48.708;9.706;2022-08-19T11:14:12;29.23;;;14.70;;
4432;SDS011;2229;48.708;9.706;2022-08-19T11:16:43;23.70;;;12.77;;
4432;SDS011;2229;48.708;9.706;2022-08-19T11:19:10;31.57;;;12.63;;
4432;SDS011;2229;48.708;9.706;2022-08-19T11:21:40;22.10;;;12.43;;
4432;SDS011;2229;48.708;9.706;2022-08-19T11:24:11;20.13;;;11.30;;
4432;SDS011;2229;48.708;9.706;2022-08-19T11:26:46;21.33;;;12.33;;
4432;SDS011;2229;48.708;9.706;2022-08-19T11:29:15;29.33;;;12.70;;
4432;SDS011;2229;48.708;9.706;2022-08-19T11:31:44;24.00;;;11.90;;
4432;SDS011;2229;48.708;9.706;2022-08-19T11:34:14;29.93;;;14.07;;
4432;SDS011;2229;48.708;9.706;2022-08-19T11:36:47;22.87;;;11.70;;
4432;SDS011;2229;48.708;9.706;2022-08-19T11:39:20;29.00;;;13.90;;
4432;SDS011;2229;48.708;9.706;2022-08-19T11:41:48;22.90;;;13.47;;
4432;SDS011;2229;48.708;9.706;2022-08-19T11:44:17;23.90;;;12.43;;
4432;SDS011;2229;48.708;9.706;2022-08-19T11:46:45;24.60;;;13.20;;
4432;SDS011;2229;48.708;9.706;2022-08-19T11:49:12;26.13;;;13.37;;
4432;SDS011;2229;48.708;9.706;2022-08-19T11:51:40;23.40;;;14.60;;
4432;SDS011;2229;48.708;9.706;2022-08-19T11:54:10;21.03;;;11.20;;
4432;SDS011;2229;48.708;9.706;2022-08-19T11:56:39;23.90;;;13.20;;
4432;SDS011;2229;48.708;9.706;2022-08-19T11:59:07;20.27;;;9.67;;
4432;SDS011;2229;48.708;9.706;2022-08-19T12:01:35;26.30;;;14.43;;
4432;SDS011;2229;48.708;9.706;2022-08-19T12:04:02;25.30;;;12.83;;
4432;SDS011;2229;48.708;9.706;2022-08-19T12:06:31;22.33;;;11.60;;
4432;SDS011;2229;48.708;9.706;2022-08-19T12:09:04;21.80;;;13.40;;
4432;SDS011;2229;48.708;9.706;2022-08-19T12:11:33;17.90;;;9.53;;
4432;SDS011;2229;48.708;9.706;2022-08-19T12:14:03;20.90;;;9.47;;
4432;SDS011;2229;48.708;9.706;2022-08-19T12:16:31;19.17;;;11.07;;
4432;SDS011;2229;48.708;9.706;2022-08-19T12:18:58;14.63;;;9.40;;
4432;SDS011;2229;48.708;9.706;2022-08-19T12:21:29;19.20;;;9.20;;
4432;SDS011;2229;48.708;9.706;2022-08-19T12:23:58;19.20;;;10.87;;
4432;SDS011;2229;48.708;9.706;2022-08-19T12:26:28;23.93;;;11.80;;
4432;SDS011;2229;48.708;9.706;2022-08-19T12:28:56;17.80;;;11.10;;
4432;SDS011;2229;48.708;9.706;2022-08-19T12:31:26;23.27;;;12.13;;
4432;SDS011;2229;48.708;9.706;2022-08-19T12:33:54;23.17;;;12.13;;
4432;SDS011;2229;48.708;9.706;2022-08-19T12:36:22;21.93;;;11.93;;
4432;SDS011;2229;48.708;9.706;2022-08-19T12:38:50;19.90;;;11.80;;
4432;SDS011;2229;48.708;9.706;2022-08-19T12:41:18;23.07;;;12.23;;
4432;SDS011;2229;48.708;9.706;2022-08-19T12:43:50;25.63;;;13.03;;
4432;SDS011;2229;48.708;9.706;2022-08-19T12:46:18;20.17;;;11.70;;
4432;SDS011;2229;48.708;9.706;2022-08-19T12:48:47;29.13;;;11.97;;
4432;SDS011;2229;48.708;9.706;2022-08-19T12:51:18;20.90;;;11.80;;
4432;SDS011;2229;48.708;9.706;2022-08-19T12:53:46;21.87;;;13.53;;
4432;SDS011;2229;48.708;9.706;2022-08-19T12:56:15;18.50;;;11.27;;
4432;SDS011;2229;48.708;9.706;2022-08-19T12:58:44;18.73;;;11.70;;
4432;SDS011;2229;48.708;9.706;2022-08-19T13:01:11;23.73;;;13.07;;
4432;SDS011;2229;48.708;9.706;2022-08-19T13:03:39;26.37;;;13.50;;
4432;SDS011;2229;48.708;9.706;2022-08-19T13:06:09;21.77;;;11.47;;
4432;SDS011;2229;48.708;9.706;2022-08-19T13:08:37;22.50;;;12.90;;
4432;SDS011;2229;48.708;9.706;2022-08-19T13:11:09;13.87;;;9.37;;
4432;SDS011;2229;48.708;9.706;2022-08-19T13:13:38;17.60;;;9.10;;
4432;SDS011;2229;48.708;9.706;2022-08-19T13:16:08;15.50;;;9.10;;
4432;SDS011;2229;48.708;9.706;2022-08-19T13:18:36;19.07;;;10.93;;
4432;SDS011;2229;48.708;9.706;2022-08-19T13:21:05;16.93;;;11.00;;
4432;SDS011;2229;48.708;9.706;2022-08-19T13:23:34;16.17;;;10.07;;
4432;SDS011;2229;48.708;9.706;2022-08-19T13:26:06;24.27;;;12.50;;
4432;SDS011;2229;48.708;9.706;2022-08-19T13:28:34;18.53;;;11.50;;
4432;SDS011;2229;48.708;9.706;2022-08-19T13:31:20;13.70;;;9.57;;
4432;SDS011;2229;48.708;9.706;2022-08-19T13:34:06;25.33;;;13.00;;
4432;SDS011;2229;48.708;9.706;2022-08-19T13:36:34;18.43;;;11.60;;
4432;SDS011;2229;48.708;9.706;2022-08-19T13:39:04;27.20;;;12.77;;
4432;SDS011;2229;48.708;9.706;2022-08-19T13:41:32;22.63;;;11.47;;
4432;SDS011;2229;48.708;9.706;2022-08-19T13:44:00;15.00;;;9.80;;
4432;SDS011;2229;48.708;9.706;2022-08-19T13:46:28;23.57;;;12.33;;
4432;SDS011;2229;48.708;9.706;2022-08-19T13:48:56;18.20;;;9.73;;
4432;SDS011;2229;48.708;9.706;2022-08-19T13:51:23;17.47;;;9.67;;
4432;SDS011;2229;48.708;9.706;2022-08-19T13:53:50;21.33;;;11.23;;
4432;SDS011;2229;48.708;9.706;2022-08-19T13:56:20;14.50;;;8.53;;
4432;SDS011;2229;48.708;9.706;2022-08-19T13:58:47;17.30;;;9.40;;
4432;SDS011;2229;48.708;9.706;2022-08-19T14:01:18;12.00;;;7.77;;
4432;SDS011;2229;48.708;9.706;2022-08-19T14:03:46;20.07;;;10.73;;
4432;SDS011;2229;48.708;9.706;2022-08-19T14:06:14;14.20;;;9.47;;
4432;SDS011;2229;48.708;9.706;2022-08-19T14:08:42;13.03;;;8.23;;
4432;SDS011;2229;48.708;9.706;2022-08-19T14:11:09;14.97;;;8.20;;
4432;SDS011;2229;48.708;9.706;2022-08-19T14:13:38;16.53;;;9.30;;
4432;SDS011;2229;48.708;9.706;2022-08-19T14:16:06;18.80;;;8.80;;
4432;SDS011;2229;48.708;9.706;2022-08-19T14:18:35;20.20;;;10.53;;
4432;SDS011;2229;48.708;9.706;2022-08-19T14:21:02;16.33;;;8.80;;
4432;SDS011;2229;48.708;9.706;2022-08-19T14:23:30;17.20;;;10.60;;
4432;SDS011;2229;48.708;9.706;2022-08-19T14:26:04;13.67;;;9.70;;
4432;SDS011;2229;48.708;9.706;2022-08-19T14:28:33;17.87;;;9.63;;
4432;SDS011;2229;48.708;9.706;2022-08-19T14:31:02;14.23;;;8.33;;
4432;SDS011;2229;48.708;9.706;2022-08-19T14:33:29;22.63;;;10.23;;
4432;SDS011;2229;48.708;9.706;2022-08-19T14:35:57;12.87;;;8.43;;
4432;SDS011;2229;48.708;9.706;2022-08-19T14:38:25;18.37;;;9.00;;
4432;SDS011;2229;48.708;9.706;2022-08-19T14:41:05;20.37;;;10.50;;
4432;SDS011;2229;48.708;9.706;2022-08-19T14:43:34;19.93;;;11.40;;
4432;SDS011;2229;48.708;9.706;2022-08-19T14:46:13;12.87;;;8.17;;
4432;SDS011;2229;48.708;9.706;2022-08-19T14:48:44;12.37;;;7.83;;
4432;SDS011;2229;48.708;9.706;2022-08-19T14:51:12;14.50;;;9.27;;
4432;SDS011;2229;48.708;9.706;2022-08-19T14:53:40;15.57;;;9.00;;
4432;SDS011;2229;48.708;9.706;2022-08-19T14:56:08;13.27;;;8.50;;
4432;SDS011;2229;48.708;9.706;2022-08-19T14:58:37;14.10;;;8.00;;
4432;SDS011;2229;48.708;9.706;2022-08-19T15:01:05;14.70;;;9.00;;
4432;SDS011;2229;48.708;9.706;2022-08-19T15:03:34;14.53;;;9.47;;
4432;SDS011;2229;48.708;9.706;2022-08-19T15:06:02;12.47;;;7.23;;
4432;SDS011;2229;48.708;9.706;2022-08-19T15:08:32;10.10;;;7.23;;
4432;SDS011;2229;48.708;9.706;2022-08-19T15:11:02;10.80;;;7.60;;
4432;SDS011;2229;48.708;9.706;2022-08-19T15:13:35;11.57;;;6.67;;